sensor_id;sensor_type;location;lat;lon;timestamp;P1;durP1;ratioP1;P2;durP2;ratioP2
71080;SDS011;58740;50.672;18.690;2023-02-26T00:01:44;6.70;;;3.30;;
71080;SDS011;58740;50.672;18.690;2023-02-26T00:04:12;6.40;;;3.60;;
71080;SDS011;58740;50.672;18.690;2023-02-26T00:06:40;8.80;;;4.20;;
71080;SDS011;58740;50.672;18.690;2023-02-26T00:09:24;6.40;;;2.80;;
71080;SDS011;58740;50.672;18.690;2023-02-26T00:11:53;8.20;;;3.70;;
71080;SDS011;58740;50.672;18.690;2023-02-26T00:14:22;5.00;;;2.20;;
71080;SDS011;58740;50.672;18.690;2023-02-26T00:20:00;9.50;;;4.40;;
71080;SDS011;58740;50.672;18.690;2023-02-26T00:22:28;10.80;;;4.10;;
71080;SDS011;58740;50.672;18.690;2023-02-26T00:24:57;8.40;;;3.90;;
71080;SDS011;58740;50.672;18.690;2023-02-26T00:27:24;8.10;;;3.40;;
71080;SDS011;58740;50.672;18.690;2023-02-26T00:29:53;7.50;;;3.20;;
71080;SDS011;58740;50.672;18.690;2023-02-26T00:32:21;6.30;;;2.70;;
71080;SDS011;58740;50.672;18.690;2023-02-26T00:34:50;6.60;;;2.00;;
71080;SDS011;58740;50.672;18.690;2023-02-26T00:37:33;5.40;;;2.40;;
71080;SDS011;58740;50.672;18.690;2023-02-26T00:40:20;5.80;;;2.30;;
71080;SDS011;58740;50.672;18.690;2023-02-26T00:42:55;8.80;;;3.90;;
71080;SDS011;58740;50.672;18.690;2023-02-26T00:45:23;7.10;;;3.20;;
71080;SDS011;58740;50.672;18.690;2023-02-26T00:48:32;6.10;;;1.90;;
71080;SDS011;58740;50.672;18.690;2023-02-26T00:54:25;6.60;;;2.50;;
71080;SDS011;58740;50.672;18.690;2023-02-26T00:56:56;6.20;;;2.80;;
71080;SDS011;58740;50.672;18.690;2023-02-26T00:59:25;4.80;;;1.80;;
71080;SDS011;58740;50.672;18.690;2023-02-26T01:01:53;9.20;;;3.50;;
71080;SDS011;58740;50.672;18.690;2023-02-26T01:04:22;9.50;;;4.00;;
71080;SDS011;58740;50.672;18.690;2023-02-26T01:06:56;6.70;;;3.20;;
71080;SDS011;58740;50.672;18.690;2023-02-26T01:09:30;9.60;;;2.90;;
71080;SDS011;58740;50.672;18.690;2023-02-26T01:12:05;6.90;;;2.30;;
71080;SDS011;58740;50.672;18.690;2023-02-26T01:14:35;7.90;;;3.00;;
71080;SDS011;58740;50.672;18.690;2023-02-26T01:17:26;7.80;;;2.50;;
71080;SDS011;58740;50.672;18.690;2023-02-26T01:20:19;5.90;;;3.00;;
71080;SDS011;58740;50.672;18.690;2023-02-26T01:23:15;7.50;;;3.10;;
71080;SDS011;58740;50.672;18.690;2023-02-26T01:25:56;6.90;;;2.50;;
71080;SDS011;58740;50.672;18.690;2023-02-26T01:28:27;7.60;;;2.70;;
71080;SDS011;58740;50.672;18.690;2023-02-26T01:30:58;6.30;;;2.40;;
71080;SDS011;58740;50.672;18.690;2023-02-26T01:33:42;5.80;;;2.20;;
71080;SDS011;58740;50.672;18.690;2023-02-26T01:36:19;3.20;;;1.30;;
71080;SDS011;58740;50.672;18.690;2023-02-26T01:42:35;7.60;;;2.60;;
71080;SDS011;58740;50.672;18.690;2023-02-26T01:45:12;5.70;;;1.50;;
71080;SDS011;58740;50.672;18.690;2023-02-26T01:48:02;5.70;;;1.80;;
71080;SDS011;58740;50.672;18.690;2023-02-26T01:50:35;6.20;;;2.20;;
71080;SDS011;58740;50.672;18.690;2023-02-26T01:53:23;4.30;;;1.40;;
71080;SDS011;58740;50.672;18.690;2023-02-26T01:55:56;9.90;;;3.80;;
71080;SDS011;58740;50.672;18.690;2023-02-26T01:58:31;5.10;;;2.70;;
71080;SDS011;58740;50.672;18.690;2023-02-26T02:01:03;7.10;;;2.70;;
71080;SDS011;58740;50.672;18.690;2023-02-26T02:03:33;6.00;;;2.40;;
71080;SDS011;58740;50.672;18.690;2023-02-26T02:06:08;7.50;;;2.70;;
71080;SDS011;58740;50.672;18.690;2023-02-26T02:08:38;6.90;;;2.80;;
71080;SDS011;58740;50.672;18.690;2023-02-26T02:11:09;6.40;;;2.50;;
71080;SDS011;58740;50.672;18.690;2023-02-26T02:13:40;5.30;;;2.00;;
71080;SDS011;58740;50.672;18.690;2023-02-26T02:25:30;4.90;;;2.00;;
71080;SDS011;58740;50.672;18.690;2023-02-26T02:28:22;5.30;;;2.10;;
71080;SDS011;58740;50.672;18.690;2023-02-26T02:31:14;8.20;;;3.30;;
71080;SDS011;58740;50.672;18.690;2023-02-26T02:34:01;8.90;;;3.00;;
71080;SDS011;58740;50.672;18.690;2023-02-26T02:36:55;7.00;;;3.00;;
71080;SDS011;58740;50.672;18.690;2023-02-26T02:42:17;9.80;;;3.40;;
71080;SDS011;58740;50.672;18.690;2023-02-26T02:44:55;9.40;;;3.30;;
71080;SDS011;58740;50.672;18.690;2023-02-26T02:47:30;3.60;;;1.30;;
71080;SDS011;58740;50.672;18.690;2023-02-26T02:50:05;6.80;;;3.30;;
71080;SDS011;58740;50.672;18.690;2023-02-26T02:53:07;8.90;;;2.70;;
71080;SDS011;58740;50.672;18.690;2023-02-26T02:55:51;7.50;;;3.00;;
71080;SDS011;58740;50.672;18.690;2023-02-26T02:58:28;5.30;;;2.40;;
71080;SDS011;58740;50.672;18.690;2023-02-26T03:01:00;7.10;;;2.50;;
71080;SDS011;58740;50.672;18.690;2023-02-26T03:03:59;6.30;;;2.60;;
71080;SDS011;58740;50.672;18.690;2023-02-26T03:06:32;5.30;;;2.30;;
71080;SDS011;58740;50.672;18.690;2023-02-26T03:09:03;9.20;;;3.40;;
71080;SDS011;58740;50.672;18.690;2023-02-26T03:11:32;7.70;;;3.20;;
71080;SDS011;58740;50.672;18.690;2023-02-26T03:14:01;6.30;;;2.70;;
71080;SDS011;58740;50.672;18.690;2023-02-26T03:16:39;9.50;;;2.80;;
71080;SDS011;58740;50.672;18.690;2023-02-26T03:19:30;7.00;;;2.60;;
71080;SDS011;58740;50.672;18.690;2023-02-26T03:22:27;7.20;;;2.20;;
71080;SDS011;58740;50.672;18.690;2023-02-26T03:25:09;4.80;;;1.90;;
71080;SDS011;58740;50.672;18.690;2023-02-26T03:31:46;9.20;;;1.80;;
71080;SDS011;58740;50.672;18.690;2023-02-26T03:37:33;10.30;;;3.10;;
71080;SDS011;58740;50.672;18.690;2023-02-26T03:40:09;8.40;;;2.90;;
71080;SDS011;58740;50.672;18.690;2023-02-26T03:42:47;7.30;;;3.00;;
71080;SDS011;58740;50.672;18.690;2023-02-26T03:45:23;6.30;;;2.40;;
71080;SDS011;58740;50.672;18.690;2023-02-26T03:47:57;7.30;;;2.80;;
71080;SDS011;58740;50.672;18.690;2023-02-26T03:50:32;5.80;;;2.00;;
71080;SDS011;58740;50.672;18.690;2023-02-26T03:53:09;3.80;;;1.20;;
71080;SDS011;58740;50.672;18.690;2023-02-26T03:58:52;6.60;;;2.10;;
71080;SDS011;58740;50.672;18.690;2023-02-26T04:01:59;4.80;;;2.00;;
71080;SDS011;58740;50.672;18.690;2023-02-26T04:04:46;7.70;;;2.40;;
71080;SDS011;58740;50.672;18.690;2023-02-26T04:07:19;6.90;;;3.00;;
71080;SDS011;58740;50.672;18.690;2023-02-26T04:09:50;5.50;;;2.30;;
71080;SDS011;58740;50.672;18.690;2023-02-26T04:12:23;7.40;;;3.00;;
71080;SDS011;58740;50.672;18.690;2023-02-26T04:14:54;7.40;;;2.20;;
71080;SDS011;58740;50.672;18.690;2023-02-26T04:17:23;8.40;;;2.80;;
71080;SDS011;58740;50.672;18.690;2023-02-26T04:19:50;3.80;;;1.70;;
71080;SDS011;58740;50.672;18.690;2023-02-26T04:22:18;7.10;;;2.60;;
71080;SDS011;58740;50.672;18.690;2023-02-26T04:24:46;8.70;;;3.50;;
71080;SDS011;58740;50.672;18.690;2023-02-26T04:27:14;5.70;;;2.10;;
71080;SDS011;58740;50.672;18.690;2023-02-26T04:29:41;5.80;;;2.10;;
71080;SDS011;58740;50.672;18.690;2023-02-26T04:32:09;10.70;;;3.80;;
71080;SDS011;58740;50.672;18.690;2023-02-26T04:34:37;7.20;;;2.60;;
71080;SDS011;58740;50.672;18.690;2023-02-26T04:37:05;7.40;;;2.90;;
71080;SDS011;58740;50.672;18.690;2023-02-26T04:39:33;8.40;;;3.70;;
71080;SDS011;58740;50.672;18.690;2023-02-26T04:42:00;7.40;;;3.70;;
71080;SDS011;58740;50.672;18.690;2023-02-26T04:44:30;7.20;;;3.70;;
71080;SDS011;58740;50.672;18.690;2023-02-26T04:46:58;11.20;;;4.10;;
71080;SDS011;58740;50.672;18.690;2023-02-26T04:49:26;9.90;;;3.70;;
71080;SDS011;58740;50.672;18.690;2023-02-26T04:51:53;7.60;;;3.20;;
71080;SDS011;58740;50.672;18.690;2023-02-26T04:54:21;9.50;;;4.00;;
71080;SDS011;58740;50.672;18.690;2023-02-26T04:56:49;9.30;;;4.10;;
71080;SDS011;58740;50.672;18.690;2023-02-26T04:59:17;6.30;;;3.00;;
71080;SDS011;58740;50.672;18.690;2023-02-26T05:01:45;9.50;;;3.80;;
71080;SDS011;58740;50.672;18.690;2023-02-26T05:04:13;5.70;;;2.30;;
71080;SDS011;58740;50.672;18.690;2023-02-26T05:06:40;8.70;;;3.70;;
71080;SDS011;58740;50.672;18.690;2023-02-26T05:09:08;19.20;;;9.30;;
71080;SDS011;58740;50.672;18.690;2023-02-26T05:11:36;13.10;;;6.10;;
71080;SDS011;58740;50.672;18.690;2023-02-26T05:14:04;12.70;;;5.90;;
71080;SDS011;58740;50.672;18.690;2023-02-26T05:16:32;11.10;;;4.60;;
71080;SDS011;58740;50.672;18.690;2023-02-26T05:19:00;8.00;;;4.00;;
71080;SDS011;58740;50.672;18.690;2023-02-26T05:21:27;9.60;;;4.90;;
71080;SDS011;58740;50.672;18.690;2023-02-26T05:23:55;15.50;;;7.80;;
71080;SDS011;58740;50.672;18.690;2023-02-26T05:26:23;14.70;;;6.50;;
71080;SDS011;58740;50.672;18.690;2023-02-26T05:28:52;10.10;;;5.60;;
71080;SDS011;58740;50.672;18.690;2023-02-26T05:31:20;8.50;;;3.80;;
71080;SDS011;58740;50.672;18.690;2023-02-26T05:33:48;9.60;;;4.40;;
71080;SDS011;58740;50.672;18.690;2023-02-26T05:36:15;10.60;;;4.90;;
71080;SDS011;58740;50.672;18.690;2023-02-26T05:38:43;8.20;;;4.10;;
71080;SDS011;58740;50.672;18.690;2023-02-26T05:41:11;9.90;;;4.40;;
71080;SDS011;58740;50.672;18.690;2023-02-26T05:43:38;8.70;;;4.90;;
71080;SDS011;58740;50.672;18.690;2023-02-26T05:46:06;7.80;;;3.70;;
71080;SDS011;58740;50.672;18.690;2023-02-26T05:48:34;9.90;;;4.30;;
71080;SDS011;58740;50.672;18.690;2023-02-26T05:51:02;9.30;;;4.20;;
71080;SDS011;58740;50.672;18.690;2023-02-26T05:53:30;9.80;;;4.50;;
71080;SDS011;58740;50.672;18.690;2023-02-26T05:55:58;7.20;;;4.00;;
71080;SDS011;58740;50.672;18.690;2023-02-26T05:58:25;9.20;;;4.30;;
71080;SDS011;58740;50.672;18.690;2023-02-26T06:00:53;7.90;;;4.00;;
71080;SDS011;58740;50.672;18.690;2023-02-26T06:03:21;9.80;;;4.40;;
71080;SDS011;58740;50.672;18.690;2023-02-26T06:05:49;12.40;;;5.40;;
71080;SDS011;58740;50.672;18.690;2023-02-26T06:08:17;10.40;;;5.70;;
71080;SDS011;58740;50.672;18.690;2023-02-26T06:10:44;9.80;;;5.30;;
71080;SDS011;58740;50.672;18.690;2023-02-26T06:13:12;7.70;;;3.50;;
71080;SDS011;58740;50.672;18.690;2023-02-26T06:15:40;10.20;;;4.70;;
71080;SDS011;58740;50.672;18.690;2023-02-26T06:18:08;6.70;;;3.30;;
71080;SDS011;58740;50.672;18.690;2023-02-26T06:20:36;18.50;;;7.70;;
71080;SDS011;58740;50.672;18.690;2023-02-26T06:23:04;13.70;;;5.50;;
71080;SDS011;58740;50.672;18.690;2023-02-26T06:25:31;8.90;;;4.20;;
71080;SDS011;58740;50.672;18.690;2023-02-26T06:27:59;5.70;;;2.40;;
71080;SDS011;58740;50.672;18.690;2023-02-26T06:30:27;6.50;;;3.50;;
71080;SDS011;58740;50.672;18.690;2023-02-26T06:32:55;9.70;;;5.40;;
71080;SDS011;58740;50.672;18.690;2023-02-26T06:35:22;10.60;;;4.30;;
71080;SDS011;58740;50.672;18.690;2023-02-26T06:37:50;8.90;;;4.10;;
71080;SDS011;58740;50.672;18.690;2023-02-26T06:40:18;11.90;;;5.50;;
71080;SDS011;58740;50.672;18.690;2023-02-26T06:42:46;14.10;;;6.40;;
71080;SDS011;58740;50.672;18.690;2023-02-26T06:45:14;8.80;;;5.10;;
71080;SDS011;58740;50.672;18.690;2023-02-26T06:47:42;12.00;;;5.00;;
71080;SDS011;58740;50.672;18.690;2023-02-26T06:50:10;8.80;;;4.30;;
71080;SDS011;58740;50.672;18.690;2023-02-26T06:52:38;12.00;;;5.90;;
71080;SDS011;58740;50.672;18.690;2023-02-26T06:55:07;10.30;;;6.10;;
71080;SDS011;58740;50.672;18.690;2023-02-26T06:57:35;12.20;;;6.10;;
71080;SDS011;58740;50.672;18.690;2023-02-26T07:00:04;8.70;;;4.80;;
71080;SDS011;58740;50.672;18.690;2023-02-26T07:02:34;13.20;;;6.00;;
71080;SDS011;58740;50.672;18.690;2023-02-26T07:05:02;11.10;;;5.00;;
71080;SDS011;58740;50.672;18.690;2023-02-26T07:07:30;12.70;;;5.60;;
71080;SDS011;58740;50.672;18.690;2023-02-26T07:09:58;7.90;;;4.40;;
71080;SDS011;58740;50.672;18.690;2023-02-26T07:12:26;8.50;;;3.40;;
71080;SDS011;58740;50.672;18.690;2023-02-26T07:14:53;7.80;;;4.00;;
71080;SDS011;58740;50.672;18.690;2023-02-26T07:17:21;5.60;;;2.90;;
71080;SDS011;58740;50.672;18.690;2023-02-26T07:19:50;8.40;;;3.10;;
71080;SDS011;58740;50.672;18.690;2023-02-26T07:22:19;7.00;;;3.60;;
71080;SDS011;58740;50.672;18.690;2023-02-26T07:24:48;8.00;;;3.60;;
71080;SDS011;58740;50.672;18.690;2023-02-26T07:27:17;8.20;;;3.20;;
71080;SDS011;58740;50.672;18.690;2023-02-26T07:29:45;12.20;;;4.80;;
71080;SDS011;58740;50.672;18.690;2023-02-26T07:32:13;17.10;;;6.20;;
71080;SDS011;58740;50.672;18.690;2023-02-26T07:34:40;9.90;;;3.40;;
71080;SDS011;58740;50.672;18.690;2023-02-26T07:37:08;7.10;;;2.10;;
71080;SDS011;58740;50.672;18.690;2023-02-26T07:39:36;6.50;;;2.40;;
71080;SDS011;58740;50.672;18.690;2023-02-26T07:42:04;10.10;;;4.50;;
71080;SDS011;58740;50.672;18.690;2023-02-26T07:44:32;7.70;;;3.50;;
71080;SDS011;58740;50.672;18.690;2023-02-26T07:47:00;8.10;;;4.00;;
71080;SDS011;58740;50.672;18.690;2023-02-26T07:49:27;7.40;;;2.80;;
71080;SDS011;58740;50.672;18.690;2023-02-26T07:51:55;6.80;;;3.00;;
71080;SDS011;58740;50.672;18.690;2023-02-26T07:54:23;10.10;;;3.10;;
71080;SDS011;58740;50.672;18.690;2023-02-26T07:56:51;6.80;;;1.90;;
71080;SDS011;58740;50.672;18.690;2023-02-26T07:59:18;17.10;;;7.20;;
71080;SDS011;58740;50.672;18.690;2023-02-26T08:01:46;17.80;;;7.10;;
71080;SDS011;58740;50.672;18.690;2023-02-26T08:04:15;9.80;;;3.30;;
71080;SDS011;58740;50.672;18.690;2023-02-26T08:06:42;11.80;;;3.60;;
71080;SDS011;58740;50.672;18.690;2023-02-26T08:09:10;6.80;;;2.70;;
71080;SDS011;58740;50.672;18.690;2023-02-26T08:11:38;9.20;;;2.60;;
71080;SDS011;58740;50.672;18.690;2023-02-26T08:14:07;7.70;;;3.00;;
71080;SDS011;58740;50.672;18.690;2023-02-26T08:16:35;8.70;;;2.90;;
71080;SDS011;58740;50.672;18.690;2023-02-26T08:19:03;12.10;;;4.60;;
71080;SDS011;58740;50.672;18.690;2023-02-26T08:21:31;10.30;;;4.00;;
71080;SDS011;58740;50.672;18.690;2023-02-26T08:23:58;13.80;;;6.50;;
71080;SDS011;58740;50.672;18.690;2023-02-26T08:26:26;14.00;;;5.90;;
71080;SDS011;58740;50.672;18.690;2023-02-26T08:28:54;12.20;;;5.20;;
71080;SDS011;58740;50.672;18.690;2023-02-26T08:31:22;13.60;;;5.80;;
71080;SDS011;58740;50.672;18.690;2023-02-26T08:33:50;9.40;;;3.50;;
71080;SDS011;58740;50.672;18.690;2023-02-26T08:36:18;13.70;;;5.30;;
71080;SDS011;58740;50.672;18.690;2023-02-26T08:38:45;22.60;;;7.50;;
71080;SDS011;58740;50.672;18.690;2023-02-26T08:41:13;20.60;;;6.30;;
71080;SDS011;58740;50.672;18.690;2023-02-26T08:43:41;13.40;;;4.30;;
71080;SDS011;58740;50.672;18.690;2023-02-26T08:46:09;15.30;;;5.30;;
71080;SDS011;58740;50.672;18.690;2023-02-26T08:48:37;7.80;;;2.80;;
71080;SDS011;58740;50.672;18.690;2023-02-26T08:51:05;7.80;;;4.50;;
71080;SDS011;58740;50.672;18.690;2023-02-26T08:53:32;8.70;;;4.90;;
71080;SDS011;58740;50.672;18.690;2023-02-26T08:56:00;8.70;;;4.10;;
71080;SDS011;58740;50.672;18.690;2023-02-26T08:58:28;7.00;;;3.00;;
71080;SDS011;58740;50.672;18.690;2023-02-26T09:00:58;6.70;;;2.30;;
71080;SDS011;58740;50.672;18.690;2023-02-26T09:03:26;7.40;;;2.70;;
71080;SDS011;58740;50.672;18.690;2023-02-26T09:05:54;6.40;;;2.50;;
71080;SDS011;58740;50.672;18.690;2023-02-26T09:08:22;7.80;;;3.00;;
71080;SDS011;58740;50.672;18.690;2023-02-26T09:10:50;5.20;;;2.00;;
71080;SDS011;58740;50.672;18.690;2023-02-26T09:13:18;4.80;;;1.60;;
71080;SDS011;58740;50.672;18.690;2023-02-26T09:15:47;6.40;;;1.80;;
71080;SDS011;58740;50.672;18.690;2023-02-26T09:18:16;7.80;;;2.50;;
71080;SDS011;58740;50.672;18.690;2023-02-26T09:20:43;7.90;;;2.10;;
71080;SDS011;58740;50.672;18.690;2023-02-26T09:23:12;8.10;;;2.10;;
71080;SDS011;58740;50.672;18.690;2023-02-26T09:25:40;4.20;;;1.70;;
71080;SDS011;58740;50.672;18.690;2023-02-26T09:28:07;3.40;;;1.10;;
71080;SDS011;58740;50.672;18.690;2023-02-26T09:30:36;8.00;;;2.00;;
71080;SDS011;58740;50.672;18.690;2023-02-26T09:33:04;5.40;;;1.70;;
71080;SDS011;58740;50.672;18.690;2023-02-26T09:35:32;6.50;;;1.90;;
71080;SDS011;58740;50.672;18.690;2023-02-26T09:37:59;4.70;;;1.90;;
71080;SDS011;58740;50.672;18.690;2023-02-26T09:40:47;7.00;;;2.20;;
71080;SDS011;58740;50.672;18.690;2023-02-26T09:46:37;4.70;;;1.70;;
71080;SDS011;58740;50.672;18.690;2023-02-26T09:49:30;6.50;;;2.30;;
71080;SDS011;58740;50.672;18.690;2023-02-26T09:52:30;6.20;;;2.50;;
71080;SDS011;58740;50.672;18.690;2023-02-26T09:55:18;7.80;;;2.20;;
71080;SDS011;58740;50.672;18.690;2023-02-26T09:57:51;5.30;;;1.70;;
71080;SDS011;58740;50.672;18.690;2023-02-26T10:00:45;5.80;;;1.90;;
71080;SDS011;58740;50.672;18.690;2023-02-26T10:03:44;9.00;;;2.90;;
71080;SDS011;58740;50.672;18.690;2023-02-26T10:14:34;10.00;;;3.40;;
71080;SDS011;58740;50.672;18.690;2023-02-26T10:17:14;8.00;;;2.20;;
71080;SDS011;58740;50.672;18.690;2023-02-26T10:19:55;7.50;;;2.40;;
71080;SDS011;58740;50.672;18.690;2023-02-26T10:22:38;4.70;;;2.00;;
71080;SDS011;58740;50.672;18.690;2023-02-26T10:25:24;4.10;;;1.30;;
71080;SDS011;58740;50.672;18.690;2023-02-26T10:28:05;10.10;;;2.80;;
71080;SDS011;58740;50.672;18.690;2023-02-26T10:30:59;8.10;;;2.80;;
71080;SDS011;58740;50.672;18.690;2023-02-26T10:33:40;6.30;;;1.80;;
71080;SDS011;58740;50.672;18.690;2023-02-26T10:36:24;8.00;;;2.00;;
71080;SDS011;58740;50.672;18.690;2023-02-26T10:39:32;5.80;;;2.10;;
71080;SDS011;58740;50.672;18.690;2023-02-26T10:51:38;5.80;;;1.80;;
71080;SDS011;58740;50.672;18.690;2023-02-26T10:54:22;7.00;;;2.10;;
71080;SDS011;58740;50.672;18.690;2023-02-26T10:56:55;4.00;;;1.40;;
71080;SDS011;58740;50.672;18.690;2023-02-26T10:59:23;4.90;;;1.70;;
71080;SDS011;58740;50.672;18.690;2023-02-26T11:01:53;7.70;;;2.30;;
71080;SDS011;58740;50.672;18.690;2023-02-26T11:04:24;5.30;;;1.80;;
71080;SDS011;58740;50.672;18.690;2023-02-26T11:06:58;9.00;;;2.50;;
71080;SDS011;58740;50.672;18.690;2023-02-26T11:09:42;12.30;;;4.10;;
71080;SDS011;58740;50.672;18.690;2023-02-26T11:12:15;10.30;;;3.60;;
71080;SDS011;58740;50.672;18.690;2023-02-26T11:14:46;10.80;;;5.20;;
71080;SDS011;58740;50.672;18.690;2023-02-26T11:17:19;22.00;;;10.80;;
71080;SDS011;58740;50.672;18.690;2023-02-26T11:19:57;16.60;;;5.60;;
71080;SDS011;58740;50.672;18.690;2023-02-26T11:22:31;11.40;;;5.00;;
71080;SDS011;58740;50.672;18.690;2023-02-26T11:25:03;9.90;;;4.20;;
71080;SDS011;58740;50.672;18.690;2023-02-26T11:27:37;6.20;;;2.30;;
71080;SDS011;58740;50.672;18.690;2023-02-26T11:32:49;11.40;;;5.00;;
71080;SDS011;58740;50.672;18.690;2023-02-26T11:35:22;17.40;;;7.20;;
71080;SDS011;58740;50.672;18.690;2023-02-26T11:37:56;8.60;;;3.20;;
71080;SDS011;58740;50.672;18.690;2023-02-26T11:40:34;10.30;;;4.00;;
71080;SDS011;58740;50.672;18.690;2023-02-26T11:43:10;14.10;;;5.10;;
71080;SDS011;58740;50.672;18.690;2023-02-26T11:45:44;12.20;;;4.60;;
71080;SDS011;58740;50.672;18.690;2023-02-26T11:48:20;12.90;;;4.50;;
71080;SDS011;58740;50.672;18.690;2023-02-26T11:50:55;8.80;;;3.00;;
71080;SDS011;58740;50.672;18.690;2023-02-26T11:53:39;10.00;;;3.70;;
71080;SDS011;58740;50.672;18.690;2023-02-26T11:56:13;8.80;;;3.60;;
71080;SDS011;58740;50.672;18.690;2023-02-26T11:58:44;8.40;;;3.00;;
71080;SDS011;58740;50.672;18.690;2023-02-26T12:01:15;12.60;;;4.30;;
71080;SDS011;58740;50.672;18.690;2023-02-26T12:03:46;22.50;;;8.00;;
71080;SDS011;58740;50.672;18.690;2023-02-26T12:06:18;14.50;;;7.20;;
71080;SDS011;58740;50.672;18.690;2023-02-26T12:08:47;15.80;;;7.70;;
71080;SDS011;58740;50.672;18.690;2023-02-26T12:11:35;13.20;;;5.10;;
71080;SDS011;58740;50.672;18.690;2023-02-26T12:14:26;11.10;;;5.00;;
71080;SDS011;58740;50.672;18.690;2023-02-26T12:19:56;9.90;;;4.80;;
71080;SDS011;58740;50.672;18.690;2023-02-26T12:28:29;10.60;;;3.70;;
71080;SDS011;58740;50.672;18.690;2023-02-26T12:34:07;8.10;;;2.60;;
71080;SDS011;58740;50.672;18.690;2023-02-26T12:43:08;5.30;;;1.90;;
71080;SDS011;58740;50.672;18.690;2023-02-26T12:54:05;17.20;;;5.00;;
71080;SDS011;58740;50.672;18.690;2023-02-26T12:57:12;18.00;;;6.30;;
71080;SDS011;58740;50.672;18.690;2023-02-26T13:00:09;17.70;;;6.10;;
71080;SDS011;58740;50.672;18.690;2023-02-26T13:12:27;7.60;;;2.70;;
71080;SDS011;58740;50.672;18.690;2023-02-26T13:18:03;7.70;;;2.70;;
71080;SDS011;58740;50.672;18.690;2023-02-26T13:20:42;7.50;;;2.70;;
71080;SDS011;58740;50.672;18.690;2023-02-26T13:23:23;7.50;;;2.60;;
71080;SDS011;58740;50.672;18.690;2023-02-26T13:26:01;8.10;;;2.20;;
71080;SDS011;58740;50.672;18.690;2023-02-26T13:28:42;5.80;;;2.20;;
71080;SDS011;58740;50.672;18.690;2023-02-26T13:31:32;5.10;;;1.70;;
71080;SDS011;58740;50.672;18.690;2023-02-26T13:34:12;5.30;;;2.70;;
71080;SDS011;58740;50.672;18.690;2023-02-26T13:36:45;8.90;;;3.10;;
71080;SDS011;58740;50.672;18.690;2023-02-26T13:39:38;8.80;;;4.50;;
71080;SDS011;58740;50.672;18.690;2023-02-26T13:42:23;8.20;;;2.40;;
71080;SDS011;58740;50.672;18.690;2023-02-26T13:51:46;9.70;;;3.10;;
71080;SDS011;58740;50.672;18.690;2023-02-26T13:54:43;4.80;;;1.80;;
71080;SDS011;58740;50.672;18.690;2023-02-26T13:57:26;6.50;;;2.30;;
71080;SDS011;58740;50.672;18.690;2023-02-26T14:00:32;5.70;;;2.10;;
71080;SDS011;58740;50.672;18.690;2023-02-26T14:03:42;8.30;;;3.20;;
71080;SDS011;58740;50.672;18.690;2023-02-26T14:06:43;9.40;;;3.50;;
71080;SDS011;58740;50.672;18.690;2023-02-26T14:12:01;5.50;;;2.00;;
71080;SDS011;58740;50.672;18.690;2023-02-26T14:14:41;5.70;;;2.10;;
71080;SDS011;58740;50.672;18.690;2023-02-26T14:19:44;5.90;;;2.60;;
71080;SDS011;58740;50.672;18.690;2023-02-26T14:22:42;5.00;;;1.60;;
71080;SDS011;58740;50.672;18.690;2023-02-26T14:25:27;11.70;;;4.20;;
71080;SDS011;58740;50.672;18.690;2023-02-26T14:31:04;13.30;;;4.10;;
71080;SDS011;58740;50.672;18.690;2023-02-26T14:33:44;13.20;;;4.20;;
71080;SDS011;58740;50.672;18.690;2023-02-26T14:36:23;7.90;;;2.70;;
71080;SDS011;58740;50.672;18.690;2023-02-26T14:39:34;12.40;;;5.00;;
71080;SDS011;58740;50.672;18.690;2023-02-26T14:42:06;9.30;;;3.70;;
71080;SDS011;58740;50.672;18.690;2023-02-26T14:44:48;10.40;;;3.70;;
71080;SDS011;58740;50.672;18.690;2023-02-26T14:47:20;7.10;;;2.50;;
71080;SDS011;58740;50.672;18.690;2023-02-26T14:49:48;11.30;;;3.80;;
71080;SDS011;58740;50.672;18.690;2023-02-26T14:55:07;9.40;;;3.80;;
71080;SDS011;58740;50.672;18.690;2023-02-26T14:58:26;8.10;;;3.10;;
71080;SDS011;58740;50.672;18.690;2023-02-26T15:13:07;7.00;;;1.70;;
71080;SDS011;58740;50.672;18.690;2023-02-26T15:16:01;5.40;;;1.70;;
71080;SDS011;58740;50.672;18.690;2023-02-26T15:22:04;11.70;;;3.00;;
71080;SDS011;58740;50.672;18.690;2023-02-26T15:24:55;10.40;;;3.30;;
71080;SDS011;58740;50.672;18.690;2023-02-26T15:27:24;9.30;;;2.60;;
71080;SDS011;58740;50.672;18.690;2023-02-26T15:29:52;13.80;;;5.70;;
71080;SDS011;58740;50.672;18.690;2023-02-26T15:32:24;11.70;;;5.50;;
71080;SDS011;58740;50.672;18.690;2023-02-26T15:35:14;6.90;;;2.30;;
71080;SDS011;58740;50.672;18.690;2023-02-26T15:37:48;11.60;;;4.00;;
71080;SDS011;58740;50.672;18.690;2023-02-26T15:40:18;10.70;;;3.70;;
71080;SDS011;58740;50.672;18.690;2023-02-26T15:42:53;7.80;;;2.70;;
71080;SDS011;58740;50.672;18.690;2023-02-26T15:45:37;7.90;;;3.10;;
71080;SDS011;58740;50.672;18.690;2023-02-26T15:48:12;7.20;;;2.90;;
71080;SDS011;58740;50.672;18.690;2023-02-26T15:50:45;5.40;;;2.00;;
71080;SDS011;58740;50.672;18.690;2023-02-26T15:53:21;6.80;;;2.40;;
71080;SDS011;58740;50.672;18.690;2023-02-26T15:55:57;6.40;;;2.20;;
71080;SDS011;58740;50.672;18.690;2023-02-26T15:58:38;5.80;;;2.10;;
71080;SDS011;58740;50.672;18.690;2023-02-26T16:01:20;11.60;;;4.20;;
71080;SDS011;58740;50.672;18.690;2023-02-26T16:03:52;11.10;;;4.20;;
71080;SDS011;58740;50.672;18.690;2023-02-26T16:09:04;12.00;;;5.10;;
71080;SDS011;58740;50.672;18.690;2023-02-26T16:11:37;11.70;;;4.70;;
71080;SDS011;58740;50.672;18.690;2023-02-26T16:14:16;13.60;;;5.70;;
71080;SDS011;58740;50.672;18.690;2023-02-26T16:16:50;11.40;;;5.10;;
71080;SDS011;58740;50.672;18.690;2023-02-26T16:19:49;10.90;;;4.40;;
71080;SDS011;58740;50.672;18.690;2023-02-26T16:22:37;10.40;;;4.30;;
71080;SDS011;58740;50.672;18.690;2023-02-26T16:25:15;7.60;;;3.40;;
71080;SDS011;58740;50.672;18.690;2023-02-26T16:27:59;14.60;;;6.30;;
71080;SDS011;58740;50.672;18.690;2023-02-26T16:30:35;16.70;;;7.80;;
71080;SDS011;58740;50.672;18.690;2023-02-26T16:33:11;13.50;;;6.10;;
71080;SDS011;58740;50.672;18.690;2023-02-26T16:35:49;11.40;;;6.20;;
71080;SDS011;58740;50.672;18.690;2023-02-26T16:38:27;10.60;;;4.10;;
71080;SDS011;58740;50.672;18.690;2023-02-26T16:41:05;12.10;;;4.80;;
71080;SDS011;58740;50.672;18.690;2023-02-26T16:46:14;85.70;;;23.80;;
71080;SDS011;58740;50.672;18.690;2023-02-26T16:48:51;58.00;;;16.00;;
71080;SDS011;58740;50.672;18.690;2023-02-26T16:51:25;35.90;;;12.50;;
71080;SDS011;58740;50.672;18.690;2023-02-26T16:54:01;39.70;;;12.40;;
71080;SDS011;58740;50.672;18.690;2023-02-26T16:56:38;26.10;;;10.00;;
71080;SDS011;58740;50.672;18.690;2023-02-26T16:59:20;18.70;;;6.70;;
71080;SDS011;58740;50.672;18.690;2023-02-26T17:01:57;19.80;;;7.50;;
71080;SDS011;58740;50.672;18.690;2023-02-26T17:04:31;17.30;;;5.60;;
71080;SDS011;58740;50.672;18.690;2023-02-26T17:07:29;14.80;;;6.30;;
71080;SDS011;58740;50.672;18.690;2023-02-26T17:10:06;15.20;;;6.00;;
71080;SDS011;58740;50.672;18.690;2023-02-26T17:12:49;17.40;;;6.40;;
71080;SDS011;58740;50.672;18.690;2023-02-26T17:15:27;11.40;;;3.90;;
71080;SDS011;58740;50.672;18.690;2023-02-26T17:17:57;10.50;;;3.80;;
71080;SDS011;58740;50.672;18.690;2023-02-26T17:20:28;13.40;;;5.10;;
71080;SDS011;58740;50.672;18.690;2023-02-26T17:22:58;12.90;;;5.10;;
71080;SDS011;58740;50.672;18.690;2023-02-26T17:25:32;15.30;;;5.40;;
71080;SDS011;58740;50.672;18.690;2023-02-26T17:28:03;10.90;;;4.20;;
71080;SDS011;58740;50.672;18.690;2023-02-26T17:30:32;16.50;;;6.50;;